This is the latest recevied weather packets stored in our database for station/object IT9FBN-3. If no packets are shown the sender has not sent any weather packets the latest 10 day(s).
| Time | Temp. | Humidity | Pressure | Rain* | Wind** | Luminosity | Snow |
|---|---|---|---|---|---|---|---|
| 1777422002 | 17.78° C | 28% | 1016.3 hPa | 0 mm | - | - | - |
| 1777421702 | 17.78° C | 28% | 1016.3 hPa | 0 mm | - | - | - |
| 1777421402 | 17.78° C | 28% | 1016.4 hPa | 0 mm | - | - | - |
| 1777421102 | 17.78° C | 29% | 1016.4 hPa | 0 mm | - | - | - |
| 1777420802 | 17.78° C | 29% | 1016.5 hPa | 0 mm | - | - | - |
| 1777420502 | 17.78° C | 29% | 1016.5 hPa | 0 mm | - | - | - |
| 1777420202 | 17.22° C | 30% | 1016.5 hPa | 0 mm | - | - | - |
| 1777419902 | 17.22° C | 31% | 1016.5 hPa | 0 mm | - | - | - |
| 1777419602 | 17.78° C | 31% | 1016.5 hPa | 0 mm | - | - | - |
| 1777419303 | 17.78° C | 31% | 1016.6 hPa | 0 mm | - | - | - |
| 1777419003 | 17.78° C | 31% | 1016.6 hPa | 0 mm | - | - | - |
| 1777418702 | 17.22° C | 31% | 1016.6 hPa | 0 mm | - | - | - |
| 1777418402 | 17.22° C | 32% | 1016.7 hPa | 0 mm | - | - | - |
| 1777418103 | 16.67° C | 34% | 1016.7 hPa | 0 mm | - | - | - |
| 1777417802 | 16.11° C | 37% | 1016.7 hPa | 0 mm | - | - | - |
| 1777417502 | 15.56° C | 41% | 1016.8 hPa | 0 mm | - | - | - |
| 1777417202 | 15.56° C | 44% | 1016.9 hPa | 0 mm | - | - | - |
| 1777416903 | 15° C | 47% | 1016.9 hPa | 0 mm | - | - | - |
| 1777416603 | 15° C | 47% | 1016.7 hPa | 0 mm | - | - | - |
| 1777416303 | 15° C | 49% | 1016.7 hPa | 0 mm | - | - | - |
| 1777416003 | 15° C | 51% | 1016.9 hPa | 0 mm | - | - | - |
| 1777415702 | 15° C | 50% | 1016.9 hPa | 0 mm | - | - | - |
| 1777415402 | 15° C | 52% | 1016.8 hPa | 0 mm | - | - | - |
| 1777415102 | 14.44° C | 53% | 1016.9 hPa | 0 mm | - | - | - |
| 1777414802 | 15° C | 52% | 1016.9 hPa | 0 mm | - | - | - |
* Rain latest hour (hover to see other rain measurements)
** Current wind speed in m/s (hover to see current wind gust speed)